Time,TemperatureF,DewpointF,PressureIn,WindDirection,WindDirectionDegrees,WindSpeedMPH,WindSpeedGustMPH,Humidity,HourlyPrecipIn,Conditions,Clouds,dailyrainin,SolarRadiationWatts/m^2,SoftwareType,DateUTC
2013-08-01 00:02:00,74.0,39.0,-100.00,East,89,4.0,8.0,28,0.00,,,0.00,0.000000,,2013-08-01 06:02:00,
2013-08-01 00:12:00,74.0,39.0,-100.00,East,89,4.0,8.0,28,0.00,,,0.00,0.000000,,2013-08-01 06:12:00,
2013-08-01 00:22:00,74.0,39.0,-100.00,East,89,4.0,8.0,28,0.00,,,0.00,0.000000,,2013-08-01 06:22:00,
2013-08-01 00:33:00,74.0,39.0,-100.00,East,89,4.0,8.0,28,0.00,,,0.00,0.000000,,2013-08-01 06:33:00,
2013-08-01 01:02:00,72.0,40.0,-100.00,East,89,5.0,8.0,31,0.00,,,0.00,0.000000,,2013-08-01 07:02:00,
2013-08-01 01:12:00,72.0,40.0,-100.00,East,89,5.0,8.0,31,0.00,,,0.00,0.000000,,2013-08-01 07:12:00,
2013-08-01 01:23:00,72.0,40.0,-100.00,East,89,5.0,8.0,31,0.00,,,0.00,0.000000,,2013-08-01 07:23:00,
2013-08-01 01:32:00,72.0,40.0,-100.00,East,89,5.0,8.0,31,0.00,,,0.00,0.000000,,2013-08-01 07:32:00,
2013-08-01 01:34:00,70.0,38.0,-100.00,ENE,72,5.0,6.0,31,0.00,,,0.00,0.000000,,2013-08-01 07:34:00,
2013-08-01 01:55:00,70.0,38.0,-100.00,ENE,72,5.0,6.0,31,0.00,,,0.00,0.000000,,2013-08-01 07:55:00,
2013-08-01 02:15:00,70.0,38.0,-100.00,ENE,72,5.0,6.0,31,0.00,,,0.00,0.000000,,2013-08-01 08:15:00,
2013-08-01 02:24:00,70.0,38.0,-100.00,ENE,72,5.0,6.0,31,0.00,,,0.00,0.000000,,2013-08-01 08:24:00,
2013-08-01 03:08:00,67.0,38.0,-100.00,ENE,62,8.0,11.0,35,0.00,,,0.00,0.000000,,2013-08-01 09:08:00,
2013-08-01 03:19:00,67.0,38.0,-100.00,ENE,62,8.0,11.0,35,0.00,,,0.00,0.000000,,2013-08-01 09:19:00,
2013-08-01 03:30:00,67.0,38.0,-100.00,ENE,62,8.0,11.0,35,0.00,,,0.00,0.000000,,2013-08-01 09:30:00,
2013-08-01 03:34:00,65.0,38.0,-100.00,East,84,8.0,12.0,37,0.00,,,0.00,0.000000,,2013-08-01 09:34:00,
2013-08-01 04:20:00,65.0,38.0,-100.00,East,84,8.0,12.0,37,0.00,,,0.00,0.000000,,2013-08-01 10:20:00,
2013-08-01 04:27:00,65.0,38.0,-100.00,East,84,8.0,12.0,37,0.00,,,0.00,0.000000,,2013-08-01 10:27:00,
2013-08-01 04:34:00,65.0,38.0,-100.00,East,84,4.0,11.0,37,0.00,,,0.00,0.000000,,2013-08-01 10:34:00,
2013-08-01 05:34:00,62.0,39.0,-100.00,East,94,5.0,8.0,43,0.00,,,0.00,0.000000,,2013-08-01 11:34:00,
2013-08-01 06:12:00,62.0,39.0,-100.00,East,94,5.0,8.0,43,0.00,,,0.00,0.000000,,2013-08-01 12:12:00,
2013-08-01 06:19:00,62.0,39.0,-100.00,East,94,5.0,8.0,43,0.00,,,0.00,0.000000,,2013-08-01 12:19:00,
2013-08-01 06:31:00,62.0,39.0,-100.00,East,94,5.0,8.0,43,0.00,,,0.00,0.000000,,2013-08-01 12:31:00,
2013-08-01 07:10:00,66.0,39.0,-100.00,East,82,4.0,7.0,37,0.00,,,0.00,6.000000,,2013-08-01 13:10:00,
2013-08-01 07:19:00,66.0,39.0,-100.00,East,82,4.0,7.0,37,0.00,,,0.00,6.000000,,2013-08-01 13:19:00,
2013-08-01 07:30:00,66.0,39.0,-100.00,East,82,4.0,7.0,37,0.00,,,0.00,6.000000,,2013-08-01 13:30:00,
2013-08-01 08:07:00,68.0,41.0,-100.00,East,100,2.0,8.0,38,0.00,,,0.00,137.000000,,2013-08-01 14:07:00,
2013-08-01 08:13:00,68.0,41.0,-100.00,East,100,2.0,8.0,38,0.00,,,0.00,137.000000,,2013-08-01 14:13:00,
2013-08-01 08:34:00,67.0,40.0,-100.00,East,97,4.0,8.0,37,0.00,,,0.00,186.000000,,2013-08-01 14:34:00,
2013-08-01 09:19:00,67.0,40.0,-100.00,East,97,4.0,8.0,37,0.00,,,0.00,186.000000,,2013-08-01 15:19:00,
2013-08-01 09:28:00,67.0,40.0,-100.00,East,97,4.0,8.0,37,0.00,,,0.00,186.000000,,2013-08-01 15:28:00,
2013-08-01 11:34:00,66.0,49.0,-100.00,SSE,160,12.0,31.0,55,0.00,,,0.00,182.000000,,2013-08-01 17:34:00,
2013-08-01 12:18:00,66.0,49.0,-100.00,SSE,160,12.0,31.0,55,0.00,,,0.00,182.000000,,2013-08-01 18:18:00,
2013-08-01 13:00:00,62.0,53.0,-100.00,South,175,7.0,24.0,72,0.00,,,0.00,106.000000,,2013-08-01 19:00:00,
2013-08-01 13:09:00,62.0,53.0,-100.00,South,175,7.0,24.0,72,0.00,,,0.00,106.000000,,2013-08-01 19:09:00,
2013-08-01 13:19:00,62.0,53.0,-100.00,South,175,7.0,24.0,72,0.00,,,0.00,106.000000,,2013-08-01 19:19:00,
2013-08-01 13:29:00,62.0,53.0,-100.00,South,175,7.0,24.0,72,0.00,,,0.00,106.000000,,2013-08-01 19:29:00,
2013-08-01 13:34:00,58.0,54.0,-100.00,WSW,241,6.0,22.0,86,0.04,,,0.04,116.000000,,2013-08-01 19:34:00,
2013-08-01 14:06:00,58.0,54.0,-100.00,WSW,241,6.0,22.0,86,0.04,,,0.04,116.000000,,2013-08-01 20:06:00,
2013-08-01 14:18:00,58.0,54.0,-100.00,WSW,241,6.0,22.0,86,0.04,,,0.04,116.000000,,2013-08-01 20:18:00,
2013-08-01 14:26:00,58.0,54.0,-100.00,WSW,241,6.0,22.0,86,0.04,,,0.04,116.000000,,2013-08-01 20:26:00,
2013-08-01 14:34:00,59.0,54.0,-100.00,SSE,154,9.0,12.0,84,0.04,,,0.08,125.000000,,2013-08-01 20:34:00,
2013-08-01 15:14:00,59.0,54.0,-100.00,SSE,154,9.0,12.0,84,0.04,,,0.08,125.000000,,2013-08-01 21:14:00,
2013-08-01 15:34:00,60.0,55.0,-100.00,ESE,123,5.0,13.0,85,0.01,,,0.09,165.000000,,2013-08-01 21:34:00,
2013-08-01 16:07:00,60.0,55.0,-100.00,ESE,123,5.0,13.0,85,0.01,,,0.09,165.000000,,2013-08-01 22:07:00,
2013-08-01 16:16:00,60.0,55.0,-100.00,ESE,123,5.0,13.0,85,0.01,,,0.09,165.000000,,2013-08-01 22:16:00,
2013-08-01 16:23:00,60.0,55.0,-100.00,ESE,123,5.0,13.0,85,0.01,,,0.09,165.000000,,2013-08-01 22:23:00,
2013-08-01 16:59:00,61.0,56.0,-100.00,East,82,5.0,10.0,83,0.00,,,0.09,212.000000,,2013-08-01 22:59:00,
2013-08-01 17:08:00,61.0,56.0,-100.00,East,82,5.0,10.0,83,0.00,,,0.09,212.000000,,2013-08-01 23:08:00,
2013-08-01 17:16:00,61.0,56.0,-100.00,East,82,5.0,10.0,83,0.00,,,0.09,212.000000,,2013-08-01 23:16:00,
2013-08-01 17:25:00,61.0,56.0,-100.00,East,82,5.0,10.0,83,0.00,,,0.09,212.000000,,2013-08-01 23:25:00,
2013-08-01 17:32:00,61.0,56.0,-100.00,East,82,5.0,10.0,83,0.00,,,0.09,212.000000,,2013-08-01 23:32:00,
2013-08-01 17:34:00,60.0,55.0,-100.00,WNW,286,7.0,11.0,84,0.00,,,0.09,99.000000,,2013-08-01 23:34:00,
2013-08-01 18:08:00,60.0,55.0,-100.00,WNW,286,7.0,11.0,84,0.00,,,0.09,99.000000,,2013-08-02 00:08:00,
2013-08-01 18:17:00,60.0,55.0,-100.00,WNW,286,7.0,11.0,84,0.00,,,0.09,99.000000,,2013-08-02 00:17:00,
2013-08-01 18:27:00,60.0,55.0,-100.00,WNW,286,7.0,11.0,84,0.00,,,0.09,99.000000,,2013-08-02 00:27:00,
2013-08-01 18:34:00,60.0,57.0,-100.00,ENE,72,5.0,16.0,89,0.09,,,0.18,104.000000,,2013-08-02 00:34:00,
2013-08-01 19:03:00,60.0,57.0,-100.00,ENE,72,5.0,16.0,89,0.09,,,0.18,104.000000,,2013-08-02 01:03:00,
2013-08-01 19:16:00,60.0,57.0,-100.00,ENE,72,5.0,16.0,89,0.09,,,0.18,104.000000,,2013-08-02 01:16:00,
2013-08-01 19:26:00,60.0,57.0,-100.00,ENE,72,5.0,16.0,89,0.09,,,0.18,104.000000,,2013-08-02 01:26:00,
2013-08-01 19:34:00,59.0,57.0,-100.00,NE,55,9.0,12.0,94,0.00,,,0.18,74.000000,,2013-08-02 01:34:00,
2013-08-01 20:00:00,59.0,57.0,-100.00,NE,55,9.0,12.0,94,0.00,,,0.18,74.000000,,2013-08-02 02:00:00,
2013-08-01 20:07:00,59.0,57.0,-100.00,NE,55,9.0,12.0,94,0.00,,,0.18,74.000000,,2013-08-02 02:07:00,
2013-08-01 20:15:00,59.0,57.0,-100.00,NE,55,9.0,12.0,94,0.00,,,0.18,74.000000,,2013-08-02 02:15:00,
2013-08-01 20:26:00,59.0,57.0,-100.00,NE,55,9.0,12.0,94,0.00,,,0.18,74.000000,,2013-08-02 02:26:00,
2013-08-01 20:34:00,58.0,55.0,-100.00,ENE,61,4.0,12.0,90,0.00,,,0.18,7.000000,,2013-08-02 02:34:00,
2013-08-01 20:53:00,58.0,55.0,-100.00,ENE,61,4.0,12.0,90,0.00,,,0.18,7.000000,,2013-08-02 02:53:00,
2013-08-01 21:08:00,58.0,55.0,-100.00,ENE,61,4.0,12.0,90,0.00,,,0.18,7.000000,,2013-08-02 03:08:00,
2013-08-01 21:23:00,58.0,55.0,-100.00,ENE,61,4.0,12.0,90,0.00,,,0.18,7.000000,,2013-08-02 03:23:00,
2013-08-01 22:00:00,58.0,53.0,-100.00,East,83,7.0,9.0,83,0.00,,,0.18,0.000000,,2013-08-02 04:00:00,
2013-08-01 22:02:00,58.0,53.0,-100.00,East,83,7.0,9.0,83,0.00,,,0.18,0.000000,,2013-08-02 04:02:00,
2013-08-01 22:12:00,58.0,53.0,-100.00,East,83,7.0,9.0,83,0.00,,,0.18,0.000000,,2013-08-02 04:12:00,
2013-08-01 22:22:00,58.0,53.0,-100.00,East,83,7.0,9.0,83,0.00,,,0.18,0.000000,,2013-08-02 04:22:00,
2013-08-01 22:33:00,58.0,53.0,-100.00,East,83,7.0,9.0,83,0.00,,,0.18,0.000000,,2013-08-02 04:33:00,
2013-08-01 22:53:00,58.0,55.0,-100.00,WSW,237,6.0,10.0,89,0.00,,,0.18,0.000000,,2013-08-02 04:53:00,
2013-08-01 23:02:00,58.0,55.0,-100.00,WSW,237,6.0,10.0,89,0.00,,,0.18,0.000000,,2013-08-02 05:02:00,
2013-08-01 23:12:00,58.0,55.0,-100.00,WSW,237,6.0,10.0,89,0.00,,,0.18,0.000000,,2013-08-02 05:12:00,
2013-08-01 23:22:00,58.0,55.0,-100.00,WSW,237,6.0,10.0,89,0.00,,,0.18,0.000000,,2013-08-02 05:22:00,
2013-08-01 23:32:00,58.0,55.0,-100.00,WSW,237,6.0,10.0,89,0.00,,,0.18,0.000000,,2013-08-02 05:32:00,
2013-08-01 23:53:00,58.0,54.0,-100.00,ESE,117,5.0,18.0,85,0.01,,,0.19,0.000000,,2013-08-02 05:53:00,